createdAt,value
2017-05-20T08:09:26.891Z,19.72
2017-05-20T08:10:18.187Z,19.75
2017-05-20T08:11:09.474Z,19.77
2017-05-20T08:12:00.775Z,19.80
2017-05-20T08:12:52.036Z,19.84
2017-05-20T08:13:43.335Z,19.87
2017-05-20T08:14:34.630Z,19.90
2017-05-20T08:15:25.863Z,19.92
2017-05-20T08:16:17.101Z,19.95
2017-05-20T08:17:08.398Z,19.97
2017-05-20T09:49:05.527Z,20.79
2017-05-20T09:49:56.767Z,20.86
2017-05-20T10:01:42.976Z,nan
2017-05-20T14:05:09.581Z,22.04
2017-05-20T14:06:00.838Z,22.42
2017-05-20T14:06:59.102Z,22.77
2017-05-20T14:08:55.861Z,22.94
2017-05-20T14:09:51.897Z,22.60
2017-05-20T14:10:43.176Z,22.55
2017-05-20T14:11:34.439Z,22.35
2017-05-20T14:12:25.808Z,22.18
2017-05-20T14:13:17.140Z,22.01
2017-05-20T14:14:08.395Z,21.86
2017-05-20T14:14:59.647Z,21.71
2017-05-20T14:15:50.943Z,21.58
2017-05-20T14:16:42.195Z,21.45
2017-05-20T14:17:33.474Z,21.34
2017-05-20T14:18:24.756Z,21.25
2017-05-20T14:19:16.008Z,21.16
2017-05-20T14:20:07.265Z,21.08
2017-05-20T14:20:58.507Z,21.01
2017-05-20T14:21:49.762Z,20.94
2017-05-20T14:22:41.007Z,20.87
2017-05-20T14:23:32.307Z,20.84
2017-05-20T14:24:23.567Z,20.80
2017-05-20T14:25:14.820Z,20.78
2017-05-20T14:26:06.063Z,20.77
2017-05-20T14:26:58.223Z,20.77
2017-05-20T14:27:50.572Z,20.76
2017-05-20T14:28:41.961Z,20.96
2017-05-20T14:29:33.371Z,21.16
2017-05-20T14:30:25.271Z,21.27
2017-05-20T14:31:17.335Z,20.99
2017-05-20T14:32:08.616Z,20.84
2017-05-20T14:32:59.932Z,20.78
2017-05-20T14:33:53.185Z,20.76
2017-05-20T14:34:44.471Z,20.90
2017-05-20T14:35:35.727Z,20.83
2017-05-20T14:36:26.999Z,20.79
2017-05-20T14:37:18.270Z,20.76
2017-05-20T14:38:09.528Z,20.75
2017-05-20T14:39:00.983Z,20.75
2017-05-20T14:39:52.439Z,20.76
2017-05-20T14:40:43.699Z,20.76
2017-05-20T14:41:34.943Z,20.77
2017-05-20T14:42:26.187Z,20.76
2017-05-20T14:43:17.444Z,20.76
2017-05-20T14:44:08.735Z,20.71
2017-05-20T14:44:59.987Z,20.66
2017-05-20T14:45:51.256Z,20.62
2017-05-20T14:46:42.519Z,20.59
2017-05-20T14:47:33.775Z,20.54
2017-05-20T14:48:25.032Z,20.49
2017-05-20T14:49:16.295Z,20.43
2017-05-20T14:50:07.567Z,20.37
2017-05-20T14:50:58.839Z,20.29
2017-05-20T14:51:50.102Z,20.20
2017-05-20T14:52:41.389Z,20.16
2017-05-20T14:53:32.671Z,20.08
2017-05-20T14:54:23.933Z,20.03
2017-05-20T14:55:15.187Z,19.98
2017-05-20T14:56:06.455Z,19.93
2017-05-20T14:56:57.747Z,19.88
2017-05-20T14:57:49.008Z,19.84
2017-05-20T14:58:40.267Z,19.81
2017-05-20T14:59:31.575Z,19.77
2017-05-20T15:00:22.847Z,19.74
2017-05-20T15:01:14.100Z,19.70
2017-05-20T15:02:05.347Z,19.68
2017-05-20T15:02:56.603Z,19.66
2017-05-20T15:03:47.853Z,19.65
2017-05-20T15:04:39.165Z,19.63
2017-05-20T15:05:30.440Z,19.62
2017-05-20T15:06:21.699Z,19.62
2017-05-20T15:07:12.939Z,19.62
2017-05-20T15:08:04.188Z,19.61
2017-05-20T15:08:55.497Z,19.60
2017-05-20T15:09:46.768Z,19.58
2017-05-20T15:10:38.019Z,19.59
2017-05-20T15:11:29.279Z,19.60
2017-05-20T15:12:20.543Z,19.61
2017-05-20T15:13:11.796Z,19.63
2017-05-20T15:14:05.099Z,19.64
2017-05-20T15:14:56.390Z,19.63
2017-05-20T15:15:47.656Z,19.65
2017-05-20T15:16:38.908Z,19.64
2017-05-20T15:17:30.175Z,19.65
2017-05-20T15:18:21.427Z,19.57
2017-05-20T15:19:12.696Z,19.63
2017-05-20T15:20:03.963Z,19.63
2017-05-20T15:20:55.219Z,19.62
2017-05-20T15:21:46.463Z,19.59
2017-05-20T15:22:37.743Z,19.60
2017-05-20T15:23:29.002Z,19.61
2017-05-20T15:24:20.246Z,19.60
2017-05-20T15:25:11.535Z,19.59
2017-05-20T15:26:02.808Z,19.60
2017-05-20T15:26:54.072Z,19.60
2017-05-20T15:27:45.327Z,19.60
2017-05-20T15:28:36.591Z,19.60
2017-05-20T15:29:27.872Z,19.60
2017-05-20T15:30:19.138Z,19.61
2017-05-20T15:31:10.386Z,19.60
2017-05-20T15:32:01.687Z,19.58
2017-05-20T15:32:53.035Z,19.57
2017-05-20T15:33:44.371Z,19.55
2017-05-20T15:34:35.634Z,19.55
2017-05-20T15:35:26.939Z,19.53
2017-05-20T15:36:18.206Z,19.51
2017-05-20T15:37:10.290Z,19.48
2017-05-20T15:38:01.543Z,19.47
2017-05-20T15:38:52.814Z,19.45
2017-05-20T15:39:44.126Z,19.43
2017-05-20T15:40:35.407Z,19.41
2017-05-20T15:41:26.663Z,19.39
2017-05-20T15:42:17.923Z,19.36
2017-05-20T15:43:09.170Z,19.35
2017-05-20T15:44:00.469Z,19.33
2017-05-20T15:44:51.726Z,19.31
2017-05-20T15:45:43.002Z,19.28
2017-05-20T15:46:34.274Z,19.26
2017-05-20T15:47:25.536Z,19.23
2017-05-20T15:48:16.819Z,19.21
2017-05-20T15:49:08.095Z,19.18
2017-05-20T15:49:59.347Z,19.15
2017-05-20T15:50:50.654Z,19.13
2017-05-20T15:51:41.919Z,19.11
2017-05-20T15:52:33.168Z,19.09
2017-05-20T15:53:25.208Z,19.08
2017-05-20T15:54:16.487Z,19.06
2017-05-20T15:55:07.755Z,19.03
2017-05-20T15:55:59.039Z,19.02
2017-05-20T15:56:50.295Z,18.97
2017-05-20T15:57:41.559Z,18.97
2017-05-20T15:58:32.815Z,18.96
2017-05-20T15:59:25.003Z,18.93
2017-05-20T16:00:16.283Z,18.90
2017-05-20T16:01:07.693Z,18.88
2017-05-20T16:01:58.951Z,18.87
2017-05-20T16:02:50.215Z,18.85
2017-05-20T16:03:41.599Z,18.81
2017-05-20T16:04:33.560Z,18.80
2017-05-20T16:05:26.678Z,18.77
2017-05-20T16:06:18.194Z,18.76
2017-05-20T16:07:09.474Z,18.69
2017-05-20T16:08:00.732Z,18.73
2017-05-20T16:08:51.993Z,18.66
2017-05-20T16:09:44.279Z,18.71
2017-05-20T16:10:35.623Z,18.70
2017-05-20T16:11:26.945Z,18.69
2017-05-20T16:12:18.227Z,18.69
2017-05-20T16:13:09.499Z,18.63
2017-05-20T16:14:00.755Z,18.66
2017-05-20T16:14:52.029Z,18.66
2017-05-20T16:15:44.239Z,18.65
2017-05-20T16:16:35.507Z,18.64
2017-05-20T16:17:26.784Z,18.62
2017-05-20T16:18:18.136Z,18.60
2017-05-20T16:19:09.529Z,18.59
2017-05-20T16:20:00.851Z,18.56
2017-05-20T16:20:52.114Z,18.54
2017-05-20T16:21:43.407Z,18.52
2017-05-20T16:22:34.672Z,18.50
2017-05-20T16:23:26.899Z,18.48
2017-05-20T16:24:18.174Z,18.46
2017-05-20T16:25:09.451Z,18.44
2017-05-20T16:26:00.739Z,18.44
2017-05-20T16:26:52.063Z,18.41
2017-05-20T16:27:45.243Z,18.40
2017-05-20T16:28:36.551Z,18.39
2017-05-20T16:29:27.820Z,18.38
2017-05-20T16:30:19.100Z,18.35
2017-05-20T16:31:11.321Z,18.30
2017-05-20T16:32:03.452Z,18.33
2017-05-20T16:32:54.719Z,18.31
2017-05-20T16:33:46.003Z,18.29
2017-05-20T16:34:37.255Z,18.27
2017-05-20T16:35:28.516Z,18.26
2017-05-20T16:36:19.827Z,18.24
2017-05-20T16:37:12.107Z,18.23
2017-05-20T16:38:04.141Z,18.22
2017-05-20T16:38:55.435Z,18.21
2017-05-20T16:39:46.703Z,18.20
2017-05-20T16:40:38.040Z,18.18
2017-05-20T16:41:29.323Z,18.17
2017-05-20T16:42:20.612Z,18.15
2017-05-20T16:43:11.881Z,18.14
2017-05-20T16:44:03.178Z,18.11
2017-05-20T16:44:54.475Z,18.10
2017-05-20T16:45:45.722Z,18.07
2017-05-20T16:46:37.770Z,18.05
2017-05-20T16:47:29.079Z,18.04
2017-05-20T16:48:20.343Z,18.03
2017-05-20T16:49:11.609Z,18.02
2017-05-20T16:50:02.867Z,18.02
2017-05-20T16:50:54.109Z,18.02
2017-05-20T16:51:45.379Z,18.01
2017-05-20T16:52:36.661Z,18.02
2017-05-20T16:53:27.984Z,18.03
2017-05-20T16:54:19.239Z,18.05
2017-05-20T16:55:10.521Z,17.98
2017-05-20T16:56:01.790Z,18.05
2017-05-20T16:56:53.056Z,18.05
2017-05-20T16:57:44.327Z,18.06
2017-05-20T16:58:35.575Z,18.08
2017-05-20T16:59:26.842Z,18.08
2017-05-20T17:00:18.095Z,18.08
2017-05-20T17:01:09.363Z,18.07
2017-05-20T17:02:00.622Z,18.07
2017-05-20T17:02:51.884Z,18.07
2017-05-20T17:03:43.151Z,18.06
2017-05-20T17:04:34.422Z,18.05
2017-05-20T17:05:25.675Z,18.05
2017-05-20T17:06:16.943Z,18.04
2017-05-20T17:07:08.463Z,18.02
2017-05-20T17:07:59.743Z,18.02
2017-05-20T17:08:50.991Z,18.00
2017-05-20T17:09:42.242Z,17.97
2017-05-20T17:10:33.490Z,17.95
2017-05-20T17:11:24.847Z,17.94
2017-05-20T17:12:16.304Z,17.93
2017-05-20T17:13:07.575Z,17.92
2017-05-20T17:13:58.830Z,17.90
2017-05-20T17:14:50.097Z,17.88
2017-05-20T17:15:41.363Z,17.85
2017-05-20T17:16:32.607Z,17.84
2017-05-20T17:17:23.860Z,17.81
2017-05-20T17:18:15.131Z,17.78
2017-05-20T17:19:06.396Z,17.76
2017-05-20T17:19:57.649Z,17.73
2017-05-20T17:20:48.910Z,17.72
2017-05-20T17:21:40.167Z,17.71
2017-05-20T17:22:31.427Z,17.62
2017-05-20T17:23:22.699Z,17.65
2017-05-20T17:24:13.955Z,17.62
2017-05-20T17:25:05.207Z,17.60
2017-05-20T17:25:56.456Z,17.58
2017-05-20T17:26:47.706Z,17.55
2017-05-20T17:27:38.965Z,17.53
2017-05-20T17:28:30.232Z,17.49
2017-05-20T17:29:21.503Z,17.46
2017-05-20T17:30:12.760Z,17.44
2017-05-20T17:31:04.031Z,17.43
2017-05-20T17:31:55.291Z,17.41
2017-05-20T17:32:46.543Z,17.39
2017-05-20T17:33:37.818Z,17.35
2017-05-20T17:34:29.070Z,17.33
2017-05-20T17:35:20.323Z,17.29
2017-05-20T17:36:11.567Z,17.26
2017-05-20T17:37:02.831Z,17.23
2017-05-20T17:37:54.076Z,17.21
2017-05-20T17:38:45.348Z,17.18
2017-05-20T17:39:36.611Z,17.15
2017-05-20T17:40:27.888Z,17.13
2017-05-20T17:41:19.136Z,17.11
2017-05-20T17:42:10.391Z,17.10
2017-05-20T17:43:01.638Z,17.07
2017-05-20T17:43:52.895Z,17.03
2017-05-20T17:44:44.151Z,16.99
2017-05-20T17:45:35.414Z,16.96
2017-05-20T17:46:26.698Z,16.93
2017-05-20T17:47:17.955Z,16.91
2017-05-20T17:48:09.199Z,16.89
2017-05-20T17:49:01.036Z,16.88
2017-05-20T17:49:52.295Z,16.84
2017-05-20T17:50:43.543Z,16.81
2017-05-20T17:51:34.799Z,16.81
2017-05-20T17:52:26.047Z,16.78
2017-05-20T17:53:17.311Z,16.76
2017-05-20T17:54:08.601Z,16.73
2017-05-20T17:54:59.847Z,16.70
2017-05-20T17:55:51.121Z,16.67
2017-05-20T17:56:42.529Z,16.64
2017-05-20T17:57:33.788Z,16.62
2017-05-20T17:58:25.077Z,16.53
2017-05-20T17:59:16.360Z,16.57
2017-05-20T18:00:07.619Z,16.54
2017-05-20T18:00:58.879Z,16.51
2017-05-20T18:01:55.555Z,16.49
2017-05-20T18:02:46.831Z,16.47
2017-05-20T18:03:38.097Z,16.45
2017-05-20T18:04:29.379Z,16.41
2017-05-20T18:05:20.634Z,16.40
2017-05-20T18:06:11.896Z,16.39
2017-05-20T18:07:03.184Z,16.36
2017-05-20T18:07:54.450Z,16.35
2017-05-20T18:08:45.708Z,16.32
2017-05-20T18:09:37.003Z,16.29
2017-05-20T18:10:28.317Z,16.26
2017-05-20T18:11:19.607Z,16.23
2017-05-20T18:12:10.855Z,16.19
2017-05-20T18:13:02.111Z,16.17
2017-05-20T18:13:53.360Z,16.14
2017-05-20T18:14:44.620Z,16.12
2017-05-20T18:15:35.878Z,16.09
2017-05-20T18:16:28.139Z,16.06
2017-05-20T18:17:19.418Z,16.05
2017-05-20T18:18:10.663Z,16.03
2017-05-20T18:19:01.914Z,15.98
2017-05-20T18:19:53.171Z,15.99
2017-05-20T18:20:44.424Z,15.97
2017-05-20T18:21:35.674Z,15.97
2017-05-20T18:22:26.922Z,15.93
2017-05-20T18:23:18.172Z,15.90
2017-05-20T18:24:09.431Z,15.90
2017-05-20T18:25:00.691Z,15.89
2017-05-20T18:25:51.960Z,15.88
2017-05-20T18:26:43.228Z,15.86
2017-05-20T18:27:34.478Z,15.83
2017-05-20T18:28:25.731Z,15.80
2017-05-20T18:29:16.980Z,15.78
2017-05-20T18:30:08.243Z,15.75
2017-05-20T18:30:59.499Z,15.72
2017-05-20T18:31:50.760Z,15.68
2017-05-20T18:32:42.022Z,15.66
2017-05-20T18:33:33.270Z,15.64
2017-05-20T18:34:24.529Z,15.62
2017-05-20T18:35:23.037Z,15.60
2017-05-20T18:36:14.306Z,15.57
2017-05-20T18:37:05.563Z,15.55
2017-05-20T18:37:56.809Z,15.52
2017-05-20T18:38:48.067Z,15.49
2017-05-20T18:39:39.311Z,15.47
2017-05-20T18:40:30.588Z,15.44
2017-05-20T18:41:21.858Z,15.42
2017-05-20T18:42:13.118Z,15.40
2017-05-20T18:43:06.880Z,15.36
2017-05-20T18:43:58.434Z,15.34
2017-05-20T18:44:49.691Z,15.32
2017-05-20T18:45:40.967Z,15.27
2017-05-20T18:46:32.252Z,15.26
2017-05-20T18:47:23.507Z,15.23
2017-05-20T18:48:14.750Z,15.19
2017-05-20T18:49:06.019Z,15.17
2017-05-20T18:49:57.277Z,15.14
2017-05-20T18:50:48.550Z,15.10
2017-05-20T18:51:39.804Z,15.07
2017-05-20T18:52:31.055Z,15.03
2017-05-20T18:53:22.307Z,15.02
2017-05-20T18:54:13.559Z,14.97
2017-05-20T18:55:04.815Z,14.94
2017-05-20T18:55:56.083Z,14.92
2017-05-20T18:56:47.487Z,14.87
2017-05-20T18:57:38.744Z,14.83
2017-05-20T18:58:29.995Z,14.80
2017-05-20T18:59:21.256Z,14.77
2017-05-20T19:00:12.499Z,14.74
2017-05-20T19:01:03.767Z,14.71
2017-05-20T19:01:56.153Z,14.68
2017-05-20T19:02:47.688Z,14.65
2017-05-20T19:03:38.961Z,14.63
2017-05-20T19:04:30.236Z,14.60
2017-05-20T19:05:21.515Z,14.57
2017-05-20T19:06:12.799Z,14.54
2017-05-20T19:07:04.152Z,14.52
2017-05-20T19:07:55.412Z,14.49
2017-05-20T19:08:46.672Z,14.45
2017-05-20T19:09:37.927Z,14.43
2017-05-20T19:10:29.183Z,14.40
2017-05-20T19:11:20.446Z,14.36
2017-05-20T19:12:11.746Z,14.35
2017-05-20T19:13:02.987Z,14.32
2017-05-20T19:13:54.238Z,14.30
2017-05-20T19:14:45.480Z,14.27
2017-05-20T19:15:36.727Z,14.24
2017-05-20T19:16:28.031Z,14.22
2017-05-20T19:17:19.299Z,14.19
2017-05-20T19:18:10.546Z,14.18
2017-05-20T19:19:01.803Z,14.14
2017-05-20T19:19:53.051Z,14.11
2017-05-20T19:20:44.327Z,14.09
2017-05-20T19:21:36.107Z,14.05
2017-05-20T19:22:30.306Z,14.04
2017-05-20T19:23:21.571Z,14.02
2017-05-20T19:24:12.816Z,14.00
2017-05-20T19:25:04.074Z,13.97
2017-05-20T19:25:55.328Z,13.96
2017-05-20T19:26:46.599Z,13.93
2017-05-20T19:27:37.856Z,13.90
2017-05-20T19:28:29.115Z,13.89
2017-05-20T19:29:20.371Z,13.87
2017-05-20T19:30:11.619Z,13.85
2017-05-20T19:31:02.864Z,13.83
2017-05-20T19:31:55.811Z,13.81
2017-05-20T19:32:47.062Z,13.79
2017-05-20T19:33:38.311Z,13.75
2017-05-20T19:34:29.567Z,13.73
2017-05-20T19:35:20.823Z,13.71
2017-05-20T19:36:12.091Z,13.69
2017-05-20T19:37:03.362Z,13.60
2017-05-20T19:37:58.408Z,13.66
2017-05-20T19:38:50.003Z,13.63
2017-05-20T19:39:44.472Z,13.61
2017-05-20T19:40:39.140Z,13.57
2017-05-20T19:41:31.444Z,13.55
2017-05-20T19:42:23.136Z,13.54
2017-05-20T19:43:17.385Z,13.51
2017-05-20T19:44:11.615Z,13.49
2017-05-20T19:45:03.392Z,13.41
2017-05-20T19:45:54.996Z,13.44
2017-05-20T19:46:46.744Z,13.40
2017-05-20T19:47:38.361Z,13.39
2017-05-20T19:48:30.076Z,13.36
2017-05-20T19:49:22.335Z,13.34
2017-05-20T19:50:13.687Z,13.32
2017-05-20T19:51:04.986Z,13.31
2017-05-20T19:51:56.255Z,13.28
2017-05-20T19:52:47.623Z,13.26
2017-05-20T19:53:38.879Z,13.25
2017-05-20T19:54:30.172Z,13.21
2017-05-20T19:55:21.430Z,13.19
2017-05-20T19:56:12.696Z,13.17
2017-05-20T19:57:03.954Z,13.15
2017-05-20T19:57:55.261Z,13.13
2017-05-20T19:58:46.543Z,13.11
2017-05-20T19:59:37.797Z,13.08
2017-05-20T20:00:29.071Z,13.02
2017-05-20T20:01:20.412Z,13.03
2017-05-20T20:02:11.671Z,13.00
2017-05-20T20:03:02.983Z,12.98
2017-05-20T20:03:54.242Z,12.97
2017-05-20T20:04:45.503Z,12.95
2017-05-20T20:05:36.762Z,12.92
2017-05-20T20:06:28.046Z,12.90
2017-05-20T20:07:19.311Z,12.88
2017-05-20T20:08:10.592Z,12.86
2017-05-20T20:09:01.888Z,12.84
2017-05-20T20:09:53.340Z,12.82
2017-05-20T20:10:44.639Z,12.80
2017-05-20T20:11:35.923Z,12.77
2017-05-20T20:12:27.183Z,12.75
2017-05-20T20:13:18.466Z,12.73
2017-05-20T20:14:09.756Z,12.70
2017-05-20T20:15:01.031Z,12.68
2017-05-20T20:15:52.278Z,12.65
2017-05-20T20:16:43.598Z,12.64
2017-05-20T20:17:34.860Z,12.60
2017-05-20T20:18:26.172Z,12.56
2017-05-20T20:19:17.488Z,12.58
2017-05-20T20:20:08.751Z,12.54
2017-05-20T20:21:00.010Z,12.52
2017-05-20T20:21:51.271Z,12.50
2017-05-20T20:22:42.531Z,12.49
2017-05-20T20:23:33.806Z,12.47
2017-05-20T20:24:25.063Z,12.45
2017-05-20T20:25:16.322Z,12.43
2017-05-20T20:26:07.638Z,12.41
2017-05-20T20:26:58.891Z,12.39
2017-05-20T20:27:50.152Z,12.36
2017-05-20T20:28:41.426Z,12.36
2017-05-20T20:29:32.833Z,12.33
2017-05-20T20:30:24.110Z,12.31
2017-05-20T20:31:15.366Z,12.30
2017-05-20T20:32:06.643Z,12.26
2017-05-20T20:32:57.924Z,12.26
2017-05-20T20:33:49.243Z,12.22
2017-05-20T20:34:40.503Z,12.21
2017-05-20T20:35:31.772Z,12.20
2017-05-20T20:36:23.028Z,12.16
2017-05-20T20:37:14.279Z,12.16
2017-05-20T20:38:05.669Z,12.14
2017-05-20T20:38:57.383Z,12.12
2017-05-20T20:39:48.651Z,12.11
2017-05-20T20:40:39.910Z,12.07
2017-05-20T20:41:31.176Z,12.05
2017-05-20T20:42:22.435Z,12.03
2017-05-20T20:43:13.699Z,11.99
2017-05-20T20:44:04.987Z,12.00
2017-05-20T20:44:56.240Z,11.96
2017-05-20T20:45:47.525Z,11.96
2017-05-20T20:46:38.839Z,11.93
2017-05-20T20:47:30.094Z,11.93
2017-05-20T20:48:21.349Z,11.91
2017-05-20T20:49:12.663Z,11.89
2017-05-20T20:50:03.926Z,11.87
2017-05-20T20:50:55.187Z,11.85
2017-05-20T20:51:46.440Z,11.83
2017-05-20T20:52:37.699Z,11.81
2017-05-20T20:53:28.993Z,11.80
2017-05-20T20:54:20.285Z,11.79
2017-05-20T20:55:11.556Z,11.76
2017-05-20T20:56:02.822Z,11.74
2017-05-20T20:56:54.081Z,11.72
2017-05-20T20:57:45.363Z,11.70
2017-05-20T20:58:36.663Z,11.67
2017-05-20T20:59:27.941Z,11.66
2017-05-20T21:00:19.207Z,11.65
2017-05-20T21:01:10.483Z,11.64
2017-05-20T21:02:01.751Z,11.61
2017-05-20T21:02:53.039Z,11.61
2017-05-20T21:03:44.331Z,11.58
2017-05-20T21:04:35.617Z,11.57
2017-05-20T21:05:26.895Z,11.55
2017-05-20T21:06:18.175Z,11.54
2017-05-20T21:07:09.427Z,11.52
2017-05-20T21:08:00.684Z,11.51
2017-05-20T21:08:51.999Z,11.50
2017-05-20T21:09:43.269Z,11.47
2017-05-20T21:10:34.539Z,11.46
2017-05-20T21:11:25.815Z,11.43
2017-05-20T21:12:17.063Z,11.42
2017-05-20T21:13:08.316Z,11.40
2017-05-20T21:13:59.578Z,11.40
2017-05-20T21:14:50.842Z,11.38
2017-05-20T21:15:42.126Z,11.38
2017-05-20T21:16:33.385Z,11.35
2017-05-20T21:17:24.655Z,11.33
2017-05-20T21:18:15.909Z,11.31
2017-05-20T21:19:07.239Z,11.30
2017-05-20T21:19:58.502Z,11.28
2017-05-20T21:20:49.815Z,11.27
2017-05-20T21:21:41.074Z,11.25
2017-05-20T21:22:32.336Z,11.23
2017-05-20T21:23:23.667Z,11.23
2017-05-20T21:24:14.944Z,11.20
2017-05-20T21:25:06.291Z,11.20
2017-05-20T21:25:57.718Z,11.18
2017-05-20T21:26:49.036Z,11.15
2017-05-20T21:27:40.286Z,11.14
2017-05-20T21:28:31.610Z,11.13
2017-05-20T21:29:22.868Z,11.11
2017-05-20T21:30:14.143Z,11.10
2017-05-20T21:31:05.402Z,11.09
2017-05-20T21:31:56.690Z,11.08
2017-05-20T21:32:47.945Z,11.06
2017-05-20T21:33:39.208Z,11.05
2017-05-20T21:34:30.495Z,11.03
2017-05-20T21:35:21.786Z,11.03
2017-05-20T21:36:13.146Z,11.01
2017-05-20T21:37:04.660Z,11.00
2017-05-20T21:37:55.925Z,10.98
2017-05-20T21:38:47.447Z,10.96
2017-05-20T21:39:38.695Z,10.95
2017-05-20T21:40:29.999Z,10.94
2017-05-20T21:41:21.263Z,10.93
2017-05-20T21:42:12.520Z,10.91
2017-05-20T21:43:03.882Z,10.91
2017-05-20T21:43:55.143Z,10.89
2017-05-20T21:44:46.451Z,10.87
2017-05-20T21:45:37.727Z,10.87
2017-05-20T21:46:29.148Z,10.85
2017-05-20T21:47:20.455Z,10.82
2017-05-20T21:48:11.731Z,10.79
2017-05-20T21:49:02.999Z,10.80
2017-05-20T21:49:54.265Z,10.80
2017-05-20T21:50:45.554Z,10.78
2017-05-20T21:51:36.811Z,10.76
2017-05-20T21:52:28.094Z,10.75
2017-05-20T21:53:19.355Z,10.74
2017-05-20T21:54:10.611Z,10.74
2017-05-20T21:55:01.971Z,10.71
2017-05-20T21:55:53.405Z,10.70
2017-05-20T21:56:44.669Z,10.69
2017-05-20T21:57:35.947Z,10.67
2017-05-20T21:58:27.208Z,10.66
2017-05-20T21:59:18.533Z,10.65
2017-05-20T22:00:09.975Z,10.63
2017-05-20T22:01:01.379Z,10.62
2017-05-20T22:01:52.654Z,10.61
2017-05-20T22:02:43.940Z,10.60
2017-05-20T22:03:35.266Z,10.58
2017-05-20T22:04:26.800Z,10.57
2017-05-20T22:05:18.064Z,10.56
2017-05-20T22:06:09.361Z,10.54
2017-05-20T22:07:00.631Z,10.53
2017-05-20T22:07:51.904Z,10.52
2017-05-20T22:08:43.163Z,10.50
2017-05-20T22:09:34.431Z,10.47
2017-05-20T22:10:25.687Z,10.47
2017-05-20T22:11:17.275Z,10.45
2017-05-20T22:12:08.531Z,10.44
2017-05-20T22:12:59.784Z,10.43
2017-05-20T22:13:51.047Z,10.41
2017-05-20T22:14:42.300Z,10.38
2017-05-20T22:15:33.555Z,10.39
2017-05-20T22:16:24.820Z,10.38
2017-05-20T22:17:16.087Z,10.36
2017-05-20T22:18:07.346Z,10.35
2017-05-20T22:18:58.610Z,10.34
2017-05-20T22:19:49.899Z,10.34
2017-05-20T22:20:41.154Z,10.31
2017-05-20T22:21:32.650Z,10.30
2017-05-20T22:22:23.912Z,10.29
2017-05-20T22:23:15.159Z,10.28
2017-05-20T22:24:06.407Z,10.27
2017-05-20T22:24:57.656Z,10.25
2017-05-20T22:25:48.906Z,10.16
2017-05-20T22:26:40.182Z,10.23
2017-05-20T22:27:31.432Z,10.21
2017-05-20T22:28:22.688Z,10.20
2017-05-20T22:29:13.947Z,10.19
2017-05-20T22:30:05.211Z,10.17
2017-05-20T22:30:56.780Z,10.16
2017-05-20T22:31:48.227Z,10.15
2017-05-20T22:32:39.479Z,10.14
2017-05-20T22:33:30.730Z,10.13
2017-05-20T22:34:22.000Z,10.12
2017-05-20T22:35:13.275Z,10.11
2017-05-20T22:36:04.588Z,10.10
2017-05-20T22:36:55.874Z,10.10
2017-05-20T22:37:47.132Z,10.07
2017-05-20T22:38:38.395Z,10.07
2017-05-20T22:39:29.646Z,10.06
2017-05-20T22:40:20.899Z,10.06
2017-05-20T22:41:12.155Z,10.04
2017-05-20T22:42:03.443Z,10.02
2017-05-20T22:42:54.727Z,9.96
2017-05-20T22:43:45.987Z,10.01
2017-05-20T22:44:37.255Z,10.00
2017-05-20T22:45:28.518Z,9.98
2017-05-20T22:46:19.771Z,9.98
2017-05-20T22:47:11.055Z,9.96
2017-05-20T22:48:02.304Z,9.94
2017-05-20T22:48:53.558Z,9.95
2017-05-20T22:49:44.819Z,9.93
2017-05-20T22:50:36.105Z,9.91
2017-05-20T22:51:27.431Z,9.91
2017-05-20T22:52:18.707Z,9.90
2017-05-20T22:53:09.975Z,9.89
2017-05-20T22:54:01.247Z,9.87
2017-05-20T22:54:52.495Z,9.86
2017-05-20T22:55:43.751Z,9.85
2017-05-20T22:56:35.019Z,9.83
2017-05-20T22:57:26.319Z,9.81
2017-05-20T22:58:17.607Z,9.81
2017-05-20T22:59:08.855Z,9.80
2017-05-20T23:00:00.104Z,9.78
2017-05-20T23:00:51.352Z,9.77
2017-05-20T23:01:42.607Z,9.77
2017-05-20T23:02:33.884Z,9.76
2017-05-20T23:03:25.130Z,9.74
2017-05-20T23:04:16.398Z,9.72
2017-05-20T23:05:07.667Z,9.72
2017-05-20T23:05:58.916Z,9.70
2017-05-20T23:06:50.160Z,9.70
2017-05-20T23:07:41.444Z,9.69
2017-05-20T23:08:32.694Z,9.67
2017-05-20T23:09:23.943Z,9.65
2017-05-20T23:10:15.219Z,9.65
2017-05-20T23:11:06.486Z,9.64
2017-05-20T23:11:57.744Z,9.62
2017-05-20T23:12:49.024Z,9.60
2017-05-20T23:13:40.279Z,9.59
2017-05-20T23:14:31.543Z,9.59
2017-05-20T23:15:22.810Z,9.57
2017-05-20T23:16:14.060Z,9.56
2017-05-20T23:17:05.315Z,9.55
2017-05-20T23:17:56.611Z,9.54
2017-05-20T23:18:47.863Z,9.53
2017-05-20T23:19:39.121Z,9.52
2017-05-20T23:20:30.387Z,9.51
2017-05-20T23:21:21.647Z,9.49
2017-05-20T23:22:12.894Z,9.48
2017-05-20T23:23:04.170Z,9.47
2017-05-20T23:23:55.464Z,9.46
2017-05-20T23:24:46.735Z,9.44
2017-05-20T23:25:37.990Z,9.43
2017-05-20T23:26:29.247Z,9.42
2017-05-20T23:27:20.499Z,9.41
2017-05-20T23:28:11.782Z,9.41
2017-05-20T23:29:03.031Z,9.40
2017-05-20T23:29:54.286Z,9.40
2017-05-20T23:30:45.536Z,9.38
2017-05-20T23:31:36.792Z,9.36
2017-05-20T23:32:28.050Z,9.35
2017-05-20T23:33:19.339Z,9.34
2017-05-20T23:34:10.687Z,9.33
2017-05-20T23:35:01.942Z,9.31
2017-05-20T23:35:53.190Z,9.31
2017-05-20T23:36:44.449Z,9.29
2017-05-20T23:37:35.712Z,9.29
2017-05-20T23:38:26.989Z,9.28
2017-05-20T23:39:18.251Z,9.27
2017-05-20T23:40:09.506Z,9.26
2017-05-20T23:41:00.750Z,9.25
2017-05-20T23:41:52.002Z,9.16
2017-05-20T23:42:43.259Z,9.22
2017-05-20T23:43:34.523Z,9.22
2017-05-20T23:44:25.778Z,9.21
2017-05-20T23:45:17.032Z,9.20
2017-05-20T23:46:08.287Z,9.20
2017-05-20T23:46:59.531Z,9.18
2017-05-20T23:47:50.767Z,9.17
2017-05-20T23:48:42.032Z,9.16
2017-05-20T23:49:33.294Z,9.15
2017-05-20T23:50:24.547Z,9.14
2017-05-20T23:51:15.799Z,9.14
2017-05-20T23:52:07.047Z,9.12
2017-05-20T23:52:58.307Z,9.12
2017-05-20T23:53:49.571Z,9.12
2017-05-20T23:54:40.823Z,9.10
2017-05-20T23:55:32.079Z,9.09
2017-05-20T23:56:23.327Z,9.08
2017-05-20T23:57:14.575Z,9.07
2017-05-20T23:58:05.830Z,9.08
2017-05-20T23:58:57.127Z,9.06
2017-05-20T23:59:48.383Z,9.04
